Time;durP1;ratioP1;P1;durP2;ratioP2;P2;SDS_P1;SDS_P2;PMS_P1;PMS_P2;Temp;Humidity;BMP_temperature;BMP_pressure;BME280_temperature;BME280_humidity;BME280_pressure;Samples;Min_cycle;Max_cycle;Signal;HPM_P1;HPM_P2
2022/01/13 00:00:19;;;;;;;;;44.75;30.00;;;;;5.43;74.52;103775.94;5056996;28;45673;-50
2022/01/13 00:02:46;;;;;;;;;50.50;38.00;;;;;5.40;75.37;103782.16;5058106;28;45292;-48
2022/01/13 00:05:12;;;;;;;;;26.25;21.50;;;;;5.35;74.72;103778.78;5057980;28;45200;-50
2022/01/13 00:07:37;;;;;;;;;52.25;31.25;;;;;5.23;75.80;103773.81;5058339;28;45375;-50
2022/01/13 00:10:04;;;;;;;;;38.00;27.00;;;;;5.24;74.77;103771.13;5058328;28;45588;-48
2022/01/13 00:12:35;;;;;;;;;33.00;24.50;;;;;5.20;75.54;103769.47;5057905;28;46136;-49
2022/01/13 00:15:19;;;;;;;;;39.25;26.00;;;;;5.20;75.89;103774.72;5057876;28;45272;-51
2022/01/13 00:25:35;;;;;;;;;25.25;23.00;;;;;5.11;75.35;103763.53;5057435;28;45359;-50
2022/01/13 00:28:02;;;;;;;;;36.50;28.00;;;;;5.14;76.97;103771.38;5057837;28;45473;-49
2022/01/13 00:30:28;;;;;;;;;27.25;20.75;;;;;5.13;75.74;103759.94;5058142;28;45373;-50
2022/01/13 00:32:53;;;;;;;;;35.25;25.25;;;;;5.13;75.73;103759.94;5057646;28;46016;-49
2022/01/13 00:35:18;;;;;;;;;32.50;25.25;;;;;5.19;75.99;103777.41;5057608;28;45169;-49
2022/01/13 00:37:44;;;;;;;;;37.25;25.75;;;;;5.19;76.40;103778.28;5057491;28;45388;-51
2022/01/13 00:40:11;;;;;;;;;37.50;22.00;;;;;5.18;76.61;103767.75;5057903;28;45145;-51
2022/01/13 00:42:36;;;;;;;;;33.75;27.00;;;;;5.19;76.14;103758.94;5057039;28;46416;-50
2022/01/13 00:45:03;;;;;;;;;41.00;31.25;;;;;5.25;76.66;103770.19;5057547;28;45359;-51
2022/01/13 00:47:30;;;;;;;;;38.75;22.75;;;;;5.28;76.48;103765.78;5057460;28;45382;-51
2022/01/13 00:49:57;;;;;;;;;22.50;16.50;;;;;5.28;76.22;103768.41;5057570;28;45382;-52
2022/01/13 00:52:24;;;;;;;;;33.00;21.50;;;;;5.23;75.78;103766.75;5057300;28;47076;-51
2022/01/13 00:54:49;;;;;;;;;26.50;20.00;;;;;5.29;75.85;103767.50;5057113;28;45527;-52
2022/01/13 00:57:15;;;;;;;;;27.00;20.75;;;;;5.26;76.49;103764.00;5057500;28;45823;-49
2022/01/13 00:59:40;;;;;;;;;31.00;17.25;;;;;5.30;75.82;103763.94;5057637;28;45266;-50
2022/01/13 01:02:05;;;;;;;;;24.25;20.00;;;;;5.23;75.75;103756.19;5057218;28;46208;-49
2022/01/13 01:04:31;;;;;;;;;21.25;17.00;;;;;5.20;76.15;103758.91;5057364;28;45348;-50
2022/01/13 01:06:56;;;;;;;;;34.25;20.50;;;;;5.19;75.89;103767.72;5057287;28;45246;-52
2022/01/13 01:09:35;;;;;;;;;27.25;17.25;;;;;5.17;76.59;103777.44;5057533;28;45224;-48
2022/01/13 01:12:01;;;;;;;;;25.00;18.25;;;;;5.19;76.66;103767.72;5056884;28;45362;-51
2022/01/13 01:14:28;;;;;;;;;18.75;16.25;;;;;5.21;76.78;103768.53;5057026;28;45335;-50
2022/01/13 01:16:54;;;;;;;;;26.50;18.00;;;;;5.22;77.09;103772.94;5057163;28;45315;-51
2022/01/13 01:19:26;;;;;;;;;21.50;18.50;;;;;5.22;76.39;103772.03;5057135;28;45521;-50
2022/01/13 01:22:44;;;;;;;;;23.75;18.50;;;;;5.20;76.88;103761.53;5056818;28;46981;-49
2022/01/13 01:27:26;;;;;;;;;20.00;18.25;;;;;5.21;76.80;103771.19;5057083;28;45511;-50
2022/01/13 01:30:00;;;;;;;;;21.50;18.75;;;;;5.18;76.28;103768.66;5057352;28;45272;-50
2022/01/13 01:32:26;;;;;;;;;23.75;12.75;;;;;5.22;76.42;103770.31;5056928;28;46988;-50
2022/01/13 01:34:56;;;;;;;;;25.75;20.25;;;;;5.21;76.45;103765.91;5056759;28;45312;-51
2022/01/13 01:37:26;;;;;;;;;21.00;16.25;;;;;5.20;76.05;103765.94;5056876;28;45383;-48
2022/01/13 01:39:55;;;;;;;;;22.25;15.25;;;;;5.17;75.62;103764.25;5057106;28;45208;-48
2022/01/13 01:42:22;;;;;;;;;26.50;20.00;;;;;5.15;76.29;103763.44;5056614;28;45446;-50
2022/01/13 01:44:52;;;;;;;;;21.00;15.75;;;;;5.11;75.75;103763.53;5056483;28;45260;-48
2022/01/13 01:47:19;;;;;;;;;23.50;19.25;;;;;5.10;76.22;103765.31;5056866;28;45316;-48
2022/01/13 01:49:48;;;;;;;;;28.50;15.75;;;;;5.07;75.97;103768.03;5056937;28;45367;-48
2022/01/13 01:52:17;;;;;;;;;18.25;15.00;;;;;4.99;76.16;103759.41;5056694;28;46310;-51
2022/01/13 01:54:44;;;;;;;;;24.75;23.25;;;;;5.04;76.32;103765.44;5059269;28;45347;-50
2022/01/13 01:57:10;;;;;;;;;18.25;11.50;;;;;5.00;76.88;103774.34;5060074;28;45332;-50
2022/01/13 01:59:39;;;;;;;;;22.25;17.75;;;;;4.98;76.70;103766.47;5060590;28;45434;-51
2022/01/13 02:02:06;;;;;;;;;25.00;16.25;;;;;4.98;76.65;103787.59;5059926;28;47189;-48
2022/01/13 02:04:32;;;;;;;;;16.75;13.50;;;;;4.94;75.71;103779.78;5059737;28;45321;-48
2022/01/13 02:07:03;;;;;;;;;14.50;13.00;;;;;4.87;75.74;103775.53;5060172;28;45351;-50
2022/01/13 02:09:29;;;;;;;;;18.00;12.50;;;;;4.86;76.18;103785.22;5059217;28;45389;-48
2022/01/13 02:12:00;;;;;;;;;18.00;14.75;;;;;4.82;75.66;103787.97;5059709;28;45396;-50
2022/01/13 02:16:52;;;;;;;;;21.25;16.25;;;;;4.73;75.86;103784.63;5059976;28;45392;-49
2022/01/13 02:19:18;;;;;;;;;12.75;11.25;;;;;4.71;75.83;103788.19;5060112;28;45350;-50
2022/01/13 02:21:44;;;;;;;;;18.25;16.00;;;;;4.58;77.26;103776.19;5059609;28;45403;-54
2022/01/13 02:24:09;;;;;;;;;23.00;14.50;;;;;4.69;77.31;103797.94;5059566;28;45277;-49
2022/01/13 02:26:35;;;;;;;;;21.50;14.50;;;;;4.71;76.91;103799.59;5059849;28;45284;-49
2022/01/13 02:29:00;;;;;;;;;17.25;14.50;;;;;4.73;77.25;103803.09;5059997;28;45216;-52
2022/01/13 02:31:27;;;;;;;;;17.00;15.50;;;;;4.75;76.87;103795.13;5059917;28;45250;-50
2022/01/13 02:33:54;;;;;;;;;13.00;9.00;;;;;4.78;77.42;103796.84;5059590;28;45429;-49
2022/01/13 02:36:22;;;;;;;;;18.75;10.75;;;;;4.77;77.52;103793.34;5059660;28;45385;-50
2022/01/13 02:38:55;;;;;;;;;20.25;14.50;;;;;4.75;76.73;103793.38;5059570;28;45426;-48
2022/01/13 02:41:24;;;;;;;;;15.00;14.50;;;;;4.78;76.57;103786.31;5059165;28;46302;-47
2022/01/13 02:43:55;;;;;;;;;11.50;9.00;;;;;4.77;76.51;103780.16;5059343;28;45237;-51
2022/01/13 02:49:10;;;;;;;;;22.00;14.25;;;;;4.83;76.45;103779.16;5059660;28;45338;-51
2022/01/13 02:51:37;;;;;;;;;18.25;13.75;;;;;4.83;76.18;103774.72;5059105;28;46258;-48
2022/01/13 02:54:04;;;;;;;;;14.00;10.50;;;;;4.80;76.44;103773.94;5059332;28;45373;-51
2022/01/13 02:56:30;;;;;;;;;19.00;13.50;;;;;4.82;76.55;103772.16;5059436;28;45399;-50
2022/01/13 02:58:56;;;;;;;;;22.25;13.00;;;;;4.82;76.55;103774.78;5059401;28;45434;-50
2022/01/13 03:01:22;;;;;;;;;17.50;14.75;;;;;4.81;76.73;103780.97;5059271;28;45396;-50
2022/01/13 03:03:47;;;;;;;;;15.25;13.75;;;;;4.82;76.70;103780.91;5059161;28;45487;-56
2022/01/13 03:06:16;;;;;;;;;15.50;13.75;;;;;4.82;77.19;103773.00;5058926;28;45297;-47
2022/01/13 03:08:45;;;;;;;;;19.50;14.00;;;;;4.83;76.00;103780.00;5059725;28;45239;-49
2022/01/13 03:11:11;;;;;;;;;14.25;12.25;;;;;4.84;75.95;103775.59;5058824;28;47120;-50
2022/01/13 03:13:36;;;;;;;;;14.50;14.50;;;;;4.84;76.47;103780.88;5059025;28;45349;-51
2022/01/13 03:16:07;;;;;;;;;22.75;13.00;;;;;4.85;76.65;103775.59;5059103;28;45424;-50
2022/01/13 03:18:32;;;;;;;;;13.75;7.50;;;;;4.87;75.92;103767.63;5059393;28;45224;-53
2022/01/13 03:20:58;;;;;;;;;14.00;11.50;;;;;4.92;76.54;103773.66;5058996;28;46956;-50
2022/01/13 03:23:23;;;;;;;;;20.25;13.50;;;;;4.92;75.91;103771.00;5059086;28;45339;-48
2022/01/13 03:25:49;;;;;;;;;17.00;14.00;;;;;4.94;76.02;103777.13;5058777;28;45461;-51
2022/01/13 03:28:28;;;;;;;;;14.00;11.25;;;;;4.77;75.54;103743.25;5057784;28;45409;-48
2022/01/13 03:30:54;;;;;;;;;20.25;13.25;;;;;4.94;75.74;103770.09;5058673;28;46376;-49
2022/01/13 03:33:20;;;;;;;;;13.00;10.50;;;;;4.93;76.18;103768.34;5058650;28;45185;-48
2022/01/13 03:35:45;;;;;;;;;18.75;15.00;;;;;4.93;76.43;103772.75;5058904;28;45362;-48
2022/01/13 03:38:11;;;;;;;;;23.50;16.75;;;;;4.89;75.79;103766.69;5058932;28;45226;-52
2022/01/13 03:40:37;;;;;;;;;26.00;13.25;;;;;4.92;75.44;103773.66;5058740;28;46023;-52
2022/01/13 03:43:04;;;;;;;;;15.50;12.25;;;;;4.91;76.29;103762.25;5058758;28;45297;-51
2022/01/13 03:45:30;;;;;;;;;10.50;10.50;;;;;4.91;75.88;103764.88;5058746;28;45427;-49
2022/01/13 03:47:56;;;;;;;;;15.75;12.75;;;;;4.90;75.45;103770.19;5059048;28;45355;-50
2022/01/13 03:50:21;;;;;;;;;23.00;14.00;;;;;4.87;75.64;103763.22;5058351;28;46459;-49
2022/01/13 03:53:01;;;;;;;;;17.50;15.00;;;;;4.87;75.96;103767.63;5058620;28;45441;-52
2022/01/13 03:55:38;;;;;;;;;20.00;13.00;;;;;4.83;75.52;103769.47;5058925;28;45307;-52
2022/01/13 03:58:41;;;;;;;;;19.25;16.00;;;;;4.77;75.18;103772.25;5058640;28;45433;-52
2022/01/13 04:01:25;;;;;;;;;14.50;10.75;;;;;4.67;75.08;103768.06;5058288;28;45359;-52
2022/01/13 04:03:50;;;;;;;;;12.50;10.25;;;;;4.61;74.64;103773.50;5058291;28;45292;-50
2022/01/13 04:06:16;;;;;;;;;11.00;8.50;;;;;4.53;74.38;103773.66;5058324;28;45891;-53
2022/01/13 04:08:46;;;;;;;;;15.50;12.00;;;;;4.45;74.68;103771.19;5058488;28;45351;-50
2022/01/13 04:11:24;;;;;;;;;10.75;8.00;;;;;4.38;75.14;103761.69;5057780;28;46987;-51
2022/01/13 04:16:18;;;;;;;;;15.75;11.50;;;;;4.28;75.17;103756.63;5055820;28;45308;-48
2022/01/13 04:18:46;;;;;;;;;15.00;13.25;;;;;4.33;76.29;103773.22;5058342;28;45504;-48
2022/01/13 04:21:12;;;;;;;;;17.00;10.00;;;;;4.33;76.31;103773.22;5057827;28;46252;-48
2022/01/13 04:23:38;;;;;;;;;18.50;12.75;;;;;4.32;75.68;103774.97;5057674;28;45470;-48
2022/01/13 04:26:07;;;;;;;;;19.00;11.75;;;;;4.35;76.17;103771.41;5057985;28;45382;-50
2022/01/13 04:28:34;;;;;;;;;20.50;14.50;;;;;4.33;76.00;103762.66;5058049;28;45465;-49
2022/01/13 04:31:00;;;;;;;;;20.50;15.50;;;;;4.40;75.78;103764.28;5057761;28;45360;-49
2022/01/13 04:33:31;;;;;;;;;16.75;12.50;;;;;4.43;76.41;103761.59;5057767;28;45466;-50
2022/01/13 04:35:57;;;;;;;;;16.50;11.25;;;;;4.46;75.68;103761.50;5057713;28;45368;-46
2022/01/13 04:38:23;;;;;;;;;15.25;13.50;;;;;4.47;76.25;103753.56;5057800;28;45244;-48
2022/01/13 04:40:55;;;;;;;;;14.25;10.50;;;;;4.43;76.30;103740.50;5057332;28;45494;-48
2022/01/13 04:43:21;;;;;;;;;19.25;11.50;;;;;4.48;75.32;103754.44;5057371;28;45252;-49
2022/01/13 04:45:50;;;;;;;;;13.50;9.50;;;;;4.48;75.37;103755.31;5057475;28;45393;-50
2022/01/13 04:48:16;;;;;;;;;21.50;11.25;;;;;4.47;75.61;103757.97;5057761;28;45438;-49
2022/01/13 04:50:43;;;;;;;;;18.25;10.50;;;;;4.46;75.02;103764.13;5057269;28;46994;-48
2022/01/13 04:53:08;;;;;;;;;16.50;12.75;;;;;4.43;75.32;103753.69;5057468;28;45418;-47
2022/01/13 04:55:35;;;;;;;;;17.25;8.25;;;;;4.40;75.33;103762.50;5057459;28;45240;-48
2022/01/13 04:58:01;;;;;;;;;19.00;11.25;;;;;4.23;75.88;103740.91;5057923;28;45291;-47
2022/01/13 05:00:29;;;;;;;;;13.25;11.00;;;;;4.35;75.46;103761.75;5057207;28;45273;-48
2022/01/13 05:02:54;;;;;;;;;17.75;10.50;;;;;4.36;76.31;103767.88;5057367;28;45575;-52
2022/01/13 05:05:20;;;;;;;;;11.75;11.50;;;;;4.37;76.02;103773.09;5059017;28;45789;-48
2022/01/13 05:07:46;;;;;;;;;11.75;9.75;;;;;4.34;75.11;103769.66;5058168;28;45276;-48
2022/01/13 05:10:12;;;;;;;;;17.25;10.50;;;;;4.32;75.18;103787.28;5058024;28;45425;-50
2022/01/13 05:12:43;;;;;;;;;15.50;9.00;;;;;4.26;75.25;103780.38;5057549;28;45422;-48
2022/01/13 05:15:14;;;;;;;;;17.75;13.75;;;;;4.18;75.53;103777.91;5057900;28;45214;-51
2022/01/13 05:20:24;;;;;;;;;13.00;9.00;;;;;4.11;75.48;103778.91;5061699;28;45409;-48
2022/01/13 05:22:50;;;;;;;;;17.00;8.00;;;;;4.03;75.02;103772.94;5060618;28;45374;-50
2022/01/13 05:25:17;;;;;;;;;19.50;10.50;;;;;4.00;75.20;103771.25;5061727;28;45316;-49
2022/01/13 05:27:43;;;;;;;;;20.00;13.50;;;;;3.98;75.46;103778.28;5059143;28;45216;-50
2022/01/13 05:30:10;;;;;;;;;23.75;15.75;;;;;3.97;75.78;103781.81;5057761;28;45787;-51
2022/01/13 05:32:35;;;;;;;;;16.50;10.50;;;;;3.96;75.41;103773.94;5056859;28;45433;-50
2022/01/13 05:35:01;;;;;;;;;15.00;10.00;;;;;3.96;75.44;103776.56;5056862;28;45515;-46
2022/01/13 05:37:27;;;;;;;;;14.25;10.00;;;;;3.96;76.03;103773.94;5056995;28;45470;-51
2022/01/13 05:39:53;;;;;;;;;11.00;7.50;;;;;3.91;76.20;103768.75;5055467;28;47148;-51
2022/01/13 05:42:18;;;;;;;;;10.25;10.25;;;;;3.90;77.01;103763.53;5056990;27;45328;-51
2022/01/13 05:44:44;;;;;;;;;14.25;11.75;;;;;3.90;76.58;103763.53;5056611;28;45459;-51
2022/01/13 05:47:11;;;;;;;;;14.75;14.75;;;;;3.80;76.79;103743.56;5057022;28;45252;-49
2022/01/13 05:49:40;;;;;;;;;17.25;13.50;;;;;3.90;76.46;103772.28;5056582;28;46260;-50
2022/01/13 05:52:06;;;;;;;;;15.25;13.50;;;;;3.52;76.76;103693.19;5056614;28;45379;-49
2022/01/13 05:54:31;;;;;;;;;11.25;11.25;;;;;3.95;76.93;103759.91;5056497;28;45395;-51
2022/01/13 05:56:57;;;;;;;;;20.25;13.25;;;;;3.97;76.82;103762.53;5056686;28;45387;-52
2022/01/13 05:59:23;;;;;;;;;11.75;9.75;;;;;3.98;76.00;103762.47;5056710;28;45394;-51
2022/01/13 06:01:48;;;;;;;;;23.75;13.00;;;;;4.00;76.77;103763.34;5056330;28;45459;-49
2022/01/13 06:04:14;;;;;;;;;18.00;13.50;;;;;4.03;76.63;103766.78;5056366;28;45404;-47
2022/01/13 06:06:39;;;;;;;;;18.00;10.75;;;;;4.06;76.31;103758.84;5055376;28;45306;-51
2022/01/13 06:09:04;;;;;;;;;13.75;11.50;;;;;4.04;76.28;103766.75;5056333;28;46153;-50
2022/01/13 06:11:38;;;;;;;;;17.00;15.50;;;;;4.02;76.18;103765.94;5056501;28;45318;-48
2022/01/13 06:14:05;;;;;;;;;22.50;13.25;;;;;4.00;76.84;103771.25;5055316;28;45502;-48
2022/01/13 06:16:30;;;;;;;;;17.00;14.00;;;;;3.99;76.11;103771.25;5056503;28;45440;-52
2022/01/13 06:18:55;;;;;;;;;17.75;13.00;;;;;3.93;76.36;103752.94;5056491;28;45365;-50
2022/01/13 06:21:21;;;;;;;;;12.00;10.00;;;;;3.94;75.46;103760.81;5056378;28;45283;-52
2022/01/13 06:23:46;;;;;;;;;19.00;17.00;;;;;3.92;76.30;103764.38;5056553;28;45307;-51
2022/01/13 06:26:11;;;;;;;;;24.25;21.00;;;;;3.93;76.93;103764.34;5056501;28;45443;-52
2022/01/13 06:28:37;;;;;;;;;19.25;16.75;;;;;3.90;76.39;103763.53;5055841;28;45271;-50
2022/01/13 06:31:02;;;;;;;;;20.00;16.50;;;;;3.93;77.43;103764.34;5056435;28;45457;-52
2022/01/13 06:33:28;;;;;;;;;22.50;16.50;;;;;3.98;76.28;103761.63;5056354;28;45173;-50
2022/01/13 06:35:55;;;;;;;;;37.25;16.75;;;;;4.03;76.54;103767.66;5056496;28;45485;-52
2022/01/13 06:38:20;;;;;;;;;26.00;17.00;;;;;4.07;76.38;103765.84;5055780;28;45324;-50
2022/01/13 06:40:47;;;;;;;;;33.50;17.00;;;;;4.08;77.47;103762.28;5058529;28;45380;-51
2022/01/13 06:43:13;;;;;;;;;21.75;17.50;;;;;4.15;77.32;103767.41;5059867;28;45414;-49
2022/01/13 06:45:38;;;;;;;;;18.75;17.75;;;;;4.18;76.73;103780.53;5059608;28;45410;-49
2022/01/13 06:48:04;;;;;;;;;24.25;17.00;;;;;4.20;76.50;103769.97;5059595;28;45991;-50
2022/01/13 06:50:29;;;;;;;;;19.50;14.00;;;;;4.18;76.13;103759.47;5059407;28;45426;-51
2022/01/13 06:52:55;;;;;;;;;19.75;13.00;;;;;4.16;75.55;103763.88;5059691;28;45268;-47
2022/01/13 06:55:20;;;;;;;;;19.75;14.75;;;;;4.11;76.06;103765.75;5059732;28;45369;-52
2022/01/13 06:57:46;;;;;;;;;22.50;17.50;;;;;4.13;76.73;103768.34;5059245;28;46242;-50
2022/01/13 07:00:13;;;;;;;;;25.25;18.50;;;;;4.11;76.11;103775.41;5059191;28;45261;-51
2022/01/13 07:02:38;;;;;;;;;25.25;18.00;;;;;4.02;75.74;103755.41;5059290;28;45190;-47
2022/01/13 07:05:05;;;;;;;;;23.25;17.00;;;;;4.09;76.19;103761.38;5059426;28;45304;-50
2022/01/13 07:07:35;;;;;;;;;22.50;17.25;;;;;4.14;75.79;103768.31;5059085;28;46441;-49
2022/01/13 07:10:03;;;;;;;;;25.25;17.75;;;;;4.10;76.89;103758.75;5075714;27;45384;-49
2022/01/13 07:12:28;;;;;;;;;21.00;19.00;;;;;4.19;76.58;103766.47;5097569;27;45439;-49
2022/01/13 07:14:54;;;;;;;;;30.25;22.25;;;;;4.19;76.37;103770.88;5099443;27;45362;-50
2022/01/13 07:17:19;;;;;;;;;26.25;16.50;;;;;4.27;76.50;103776.84;5092419;27;45630;-50
2022/01/13 07:19:46;;;;;;;;;25.25;19.25;;;;;4.32;76.83;103772.34;5077048;28;45592;-50
2022/01/13 07:22:12;;;;;;;;;35.00;23.00;;;;;4.33;76.93;103779.34;5078053;27;45435;-49
2022/01/13 07:24:37;;;;;;;;;20.25;16.00;;;;;4.38;75.87;103772.22;5077793;28;45441;-49
2022/01/13 07:27:03;;;;;;;;;17.50;10.25;;;;;4.40;76.33;103777.47;5077494;28;45441;-48
2022/01/13 07:29:28;;;;;;;;;22.50;16.50;;;;;4.41;76.24;103772.13;5077871;28;45445;-47
2022/01/13 07:31:53;;;;;;;;;22.00;19.50;;;;;4.44;76.04;103771.22;5078386;28;45425;-51
2022/01/13 07:34:19;;;;;;;;;22.75;17.50;;;;;4.47;75.76;103776.44;5078383;28;45441;-49
2022/01/13 07:36:44;;;;;;;;;27.25;20.25;;;;;4.48;76.07;103786.94;5077901;28;46195;-51
2022/01/13 07:39:10;;;;;;;;;27.00;17.50;;;;;4.49;76.16;103780.75;5077894;28;45502;-50
2022/01/13 07:41:37;;;;;;;;;17.25;11.50;;;;;4.40;76.02;103756.38;5077987;28;45226;-49
2022/01/13 07:44:03;;;;;;;;;22.00;17.75;;;;;4.52;76.45;103769.28;5077185;28;45319;-50
2022/01/13 07:46:28;;;;;;;;;27.75;18.00;;;;;4.50;75.90;103768.44;5110532;27;47497;-49
2022/01/13 07:48:54;;;;;;;;;17.75;17.00;;;;;4.55;75.63;103777.13;5077740;28;45336;-48
2022/01/13 07:51:19;;;;;;;;;26.00;14.50;;;;;4.50;76.03;103771.06;5076617;28;45410;-50
2022/01/13 07:53:46;;;;;;;;;19.75;16.50;;;;;4.58;76.00;103784.97;5078064;28;45418;-49
2022/01/13 07:56:11;;;;;;;;;21.00;15.00;;;;;4.58;76.05;103776.19;5077594;28;45344;-51
2022/01/13 07:58:37;;;;;;;;;24.00;17.50;;;;;4.60;75.95;103774.41;5077248;28;45356;-52
2022/01/13 08:01:04;;;;;;;;;27.00;17.25;;;;;4.62;75.90;103770.81;5077666;28;45504;-48
2022/01/13 08:03:29;;;;;;;;;20.75;16.00;;;;;4.59;75.14;103765.59;5077756;28;45365;-50
2022/01/13 08:05:54;;;;;;;;;22.50;17.25;;;;;4.63;76.44;103769.03;5077061;28;46079;-50
2022/01/13 08:08:20;;;;;;;;;23.25;14.00;;;;;4.63;75.44;103769.91;5077455;28;45503;-50
2022/01/13 08:10:45;;;;;;;;;27.75;18.00;;;;;4.63;75.30;103772.53;5077342;28;45206;-50
2022/01/13 08:13:11;;;;;;;;;24.75;21.00;;;;;4.64;76.22;103769.03;5077809;28;45390;-50
2022/01/13 08:15:36;;;;;;;;;29.75;21.00;;;;;4.65;75.37;103764.63;5077078;28;46285;-50
2022/01/13 08:20:46;;;;;;;;;29.25;17.00;;;;;4.48;75.93;103749.16;5077248;28;45430;-52
2022/01/13 08:23:12;;;;;;;;;32.25;18.00;;;;;4.59;75.79;103770.00;5077748;28;45407;-51
2022/01/13 08:25:38;;;;;;;;;22.25;15.00;;;;;4.54;75.12;103758.69;5075668;28;45376;-50
2022/01/13 08:28:05;;;;;;;;;28.50;20.75;;;;;4.52;75.16;103764.03;5077258;28;45234;-49
2022/01/13 08:30:31;;;;;;;;;32.75;19.75;;;;;4.56;74.69;103768.31;5077206;28;45367;-51
2022/01/13 08:32:56;;;;;;;;;22.75;18.00;;;;;4.49;75.52;103757.03;5077212;28;45473;-51
2022/01/13 08:35:22;;;;;;;;;31.25;18.50;;;;;4.56;75.74;103759.56;5077075;28;47115;-52
2022/01/13 08:37:47;;;;;;;;;23.50;20.50;;;;;4.58;75.33;103765.66;5076700;28;45355;-49
2022/01/13 08:40:14;;;;;;;;;29.25;20.50;;;;;4.60;74.90;103759.44;5077294;28;45659;-47
2022/01/13 08:42:40;;;;;;;;;28.00;18.00;;;;;4.67;75.48;103763.66;5076067;28;45305;-50
2022/01/13 08:45:09;;;;;;;;;22.25;19.00;;;;;4.70;74.77;103760.09;5076289;28;46407;-49
2022/01/13 08:47:35;;;;;;;;;26.00;22.25;;;;;4.63;75.04;103743.53;5076955;27;45288;-51
2022/01/13 08:50:00;;;;;;;;;25.50;20.50;;;;;4.76;74.20;103759.94;5077188;28;45327;-50
2022/01/13 08:52:26;;;;;;;;;17.00;14.00;;;;;4.78;74.22;103768.69;5077162;28;45783;-49
2022/01/13 08:54:55;;;;;;;;;29.50;19.50;;;;;4.72;73.95;103764.44;5109746;27;48323;-52
2022/01/13 08:57:20;;;;;;;;;30.00;21.00;;;;;4.68;73.97;103768.06;5076740;28;45418;-49
2022/01/13 08:59:46;;;;;;;;;23.75;21.00;;;;;4.66;74.03;103764.56;5077156;28;45380;-48
2022/01/13 09:02:11;;;;;;;;;31.50;17.00;;;;;4.64;74.75;103770.78;5076438;28;45408;-49
2022/01/13 09:04:37;;;;;;;;;22.75;20.75;;;;;4.62;74.70;103772.59;5076616;28;45950;-51
2022/01/13 09:07:02;;;;;;;;;55.75;36.50;;;;;4.64;74.37;103776.94;5076749;28;45394;-51
2022/01/13 09:09:28;;;;;;;;;35.00;23.50;;;;;4.62;75.16;103778.72;5076676;27;45425;-51
2022/01/13 09:11:53;;;;;;;;;23.75;19.00;;;;;4.59;74.19;103780.56;5077007;27;45229;-52
2022/01/13 09:14:24;;;;;;;;;24.25;21.00;;;;;4.55;75.35;103779.78;5076221;28;46159;-50
2022/01/13 09:16:50;;;;;;;;;34.50;23.75;;;;;4.59;74.64;103780.56;5076006;28;45882;-50
2022/01/13 09:19:17;;;;;;;;;31.00;23.25;;;;;4.61;74.41;103795.44;5076568;28;45286;-51
2022/01/13 09:21:45;;;;;;;;;33.75;21.50;;;;;4.61;75.19;103792.81;5076687;28;45307;-50
2022/01/13 09:24:14;;;;;;;;;33.25;23.25;;;;;4.65;75.26;103791.84;5076393;28;46132;-51
2022/01/13 09:26:40;;;;;;;;;27.00;24.50;;;;;4.68;74.92;103794.44;5109582;27;45879;-50
2022/01/13 09:29:06;;;;;;;;;38.25;23.50;;;;;4.72;74.94;103804.00;5076342;28;45250;-50
2022/01/13 09:31:34;;;;;;;;;32.00;22.75;;;;;4.64;74.32;103778.72;5076589;28;45211;-51
2022/01/13 09:34:01;;;;;;;;;32.25;20.25;;;;;4.80;74.75;103792.41;5075177;28;46225;-51
2022/01/13 09:36:28;;;;;;;;;37.50;26.75;;;;;4.85;74.58;103809.88;5076018;28;45623;-52
2022/01/13 09:38:54;;;;;;;;;46.50;32.75;;;;;4.86;74.51;103810.75;5076283;28;45490;-48
2022/01/13 09:41:22;;;;;;;;;40.25;30.00;;;;;4.87;74.43;103808.06;5076605;28;45496;-52
2022/01/13 09:43:48;;;;;;;;;24.00;20.25;;;;;4.85;74.01;103798.47;5076035;28;45416;-49
2022/01/13 09:46:13;;;;;;;;;30.50;21.75;;;;;4.91;73.43;103817.63;5076207;28;45531;-51
2022/01/13 09:48:40;;;;;;;;;22.25;17.75;;;;;4.97;73.61;103819.25;5076214;28;45740;-49
2022/01/13 09:51:06;;;;;;;;;25.75;21.00;;;;;4.93;73.54;103823.75;5076472;28;45392;-53
2022/01/13 09:53:32;;;;;;;;;21.00;17.75;;;;;4.82;73.44;103803.78;5076149;28;47228;-51
2022/01/13 09:55:57;;;;;;;;;19.75;14.00;;;;;4.79;72.76;103803.84;5075863;28;45752;-51
2022/01/13 09:58:23;;;;;;;;;25.75;22.25;;;;;4.86;72.61;103811.59;5076257;28;45456;-49
2022/01/13 10:00:48;;;;;;;;;25.25;18.75;;;;;4.85;72.79;103809.00;5076340;28;45450;-47
2022/01/13 10:03:25;;;;;;;;;40.00;28.00;;;;;4.88;72.84;103825.59;5075824;28;45523;-49
2022/01/13 10:05:56;;;;;;;;;36.75;20.25;;;;;4.87;73.21;103828.28;5075911;28;45269;-53
2022/01/13 10:08:39;;;;;;;;;27.25;21.00;;;;;4.86;73.37;103821.28;5075877;28;45450;-51
2022/01/13 10:11:38;;;;;;;;;27.75;20.25;;;;;4.85;72.94;103809.88;5075738;28;45482;-52
2022/01/13 10:16:55;;;;;;;;;26.00;20.00;;;;;4.86;72.60;103823.94;5078725;28;45570;-52
2022/01/13 10:19:37;;;;;;;;;18.25;16.00;;;;;4.84;72.37;103821.31;5078979;28;45357;-53
2022/01/13 10:22:12;;;;;;;;;24.50;19.25;;;;;4.84;73.11;103820.44;5079163;27;45393;-53
2022/01/13 10:24:43;;;;;;;;;32.00;19.50;;;;;4.87;72.93;103825.66;5078766;27;45626;-52
2022/01/13 10:27:14;;;;;;;;;31.00;21.50;;;;;4.88;72.36;103822.09;5078769;27;45349;-49
2022/01/13 10:29:49;;;;;;;;;29.75;21.25;;;;;4.91;72.17;103816.78;5078833;27;45417;-51
2022/01/13 10:32:31;;;;;;;;;34.75;24.50;;;;;4.95;72.76;103821.06;5079083;27;45492;-51
2022/01/13 10:35:00;;;;;;;;;22.00;21.25;;;;;5.05;72.92;103812.03;5077864;28;47586;-49
2022/01/13 10:37:34;;;;;;;;;32.25;26.00;;;;;5.22;71.77;103815.16;5078414;27;45390;-52
2022/01/13 10:40:01;;;;;;;;;42.00;30.00;;;;;5.30;71.78;103811.47;5078798;27;45537;-48
2022/01/13 10:45:14;;;;;;;;;30.25;23.75;;;;;5.19;71.48;103782.69;5078745;28;45381;-52
2022/01/13 10:47:48;;;;;;;;;29.25;20.00;;;;;5.27;71.93;103801.84;5078544;28;45359;-51
2022/01/13 10:50:14;;;;;;;;;21.75;19.75;;;;;5.30;71.90;103803.53;5078679;28;45467;-49
2022/01/13 10:52:40;;;;;;;;;24.25;18.25;;;;;5.32;71.55;103804.38;5078984;28;45399;-54
2022/01/13 10:55:10;;;;;;;;;25.00;17.00;;;;;5.33;70.83;103803.47;5078703;28;46131;-51
2022/01/13 10:57:37;;;;;;;;;23.75;19.75;;;;;5.38;70.90;103798.94;5078516;28;45529;-54
2022/01/13 11:00:17;;;;;;;;;22.50;18.00;;;;;5.40;70.57;103802.41;5078609;28;45420;-54
2022/01/13 11:03:05;;;;;;;;;33.50;26.25;;;;;5.38;70.80;103798.94;5078717;28;45436;-50
2022/01/13 11:05:34;;;;;;;;;25.50;23.25;;;;;5.34;71.40;103797.28;5035426;28;46365;-50
2022/01/13 11:08:04;;;;;;;;;32.00;27.00;;;;;5.31;70.80;103798.25;5035574;28;45433;-53
2022/01/13 11:10:30;;;;;;;;;41.50;31.00;;;;;5.21;71.46;103772.97;5018607;28;45609;-50
2022/01/13 11:12:58;;;;;;;;;34.50;25.00;;;;;5.41;71.41;103793.59;5035492;28;45859;-50
2022/01/13 11:15:25;;;;;;;;;32.00;20.00;;;;;5.38;70.91;103775.19;5035199;28;45458;-52
2022/01/13 11:17:53;;;;;;;;;36.25;27.00;;;;;5.47;70.83;103772.31;5035074;28;45505;-52
2022/01/13 11:20:20;;;;;;;;;32.50;24.50;;;;;5.56;70.67;103777.34;5034843;28;45417;-52
2022/01/13 11:22:48;;;;;;;;;41.00;29.75;;;;;5.60;70.64;103784.28;5035387;28;45872;-49
2022/01/13 11:25:15;;;;;;;;;39.25;30.50;;;;;5.61;70.33;103783.38;5034797;28;46267;-51
2022/01/13 11:27:42;;;;;;;;;31.00;24.25;;;;;5.66;70.17;103781.50;5034814;28;45455;-51
2022/01/13 11:30:12;;;;;;;;;32.50;28.00;;;;;5.67;70.36;103767.38;5025171;28;45392;-49
2022/01/13 11:32:40;;;;;;;;;34.00;23.50;;;;;5.73;70.51;103775.16;5015486;28;45563;-52
2022/01/13 11:35:08;;;;;;;;;32.50;24.75;;;;;5.76;70.19;103764.47;5014828;28;45347;-49
2022/01/13 11:37:34;;;;;;;;;44.50;30.25;;;;;5.81;70.22;103768.78;5015175;28;45571;-49
2022/01/13 11:40:00;;;;;;;;;40.00;31.50;;;;;5.81;69.63;103768.78;5015263;28;45350;-50
2022/01/13 11:42:25;;;;;;;;;38.25;28.50;;;;;5.78;69.47;103753.03;5034507;28;45891;-47
2022/01/13 11:45:12;;;;;;;;;36.25;25.00;;;;;5.84;69.50;103761.63;5057708;28;46321;-49
2022/01/13 11:47:38;;;;;;;;;29.75;25.00;;;;;5.87;69.69;103760.69;5057716;28;45336;-49